Time;durP1;ratioP1;P1;durP2;ratioP2;P2;SDS_P1;SDS_P2;PMS_P1;PMS_P2;Temp;Humidity;BMP_temperature;BMP_pressure;BME280_temperature;BME280_humidity;BME280_pressure;Samples;Min_cycle;Max_cycle;Signal;HPM_P1;HPM_P2
2021/03/06 00:01:27;;;;;;;12.97;10.07;;;;;;;;;;5059396;28;20393;-49
2021/03/06 00:03:53;;;;;;;15.45;9.73;;;;;;;;;;5058207;28;20415;-49
2021/03/06 00:06:19;;;;;;;17.48;10.20;;;;;;;;;;5057256;28;20179;-49
2021/03/06 00:08:45;;;;;;;15.93;9.90;;;;;;;;;;5058399;28;20177;-49
2021/03/06 00:11:11;;;;;;;14.95;10.38;;;;;;;;;;5058563;28;20408;-50
2021/03/06 00:13:37;;;;;;;13.83;9.70;;;;;;;;;;5058021;28;20824;-51
2021/03/06 00:16:04;;;;;;;14.27;10.25;;;;;;;;;;5057911;28;20432;-49
2021/03/06 00:18:30;;;;;;;20.35;10.80;;;;;;;;;;5057605;28;20206;-49
2021/03/06 00:20:56;;;;;;;17.60;10.40;;;;;;;;;;5058037;28;20220;-49
2021/03/06 00:23:21;;;;;;;18.37;10.83;;;;;;;;;;5058049;28;20314;-49
2021/03/06 00:25:47;;;;;;;13.73;9.77;;;;;;;;;;5058079;28;20405;-49
2021/03/06 00:28:14;;;;;;;14.70;9.40;;;;;;;;;;5058124;28;20470;-50
2021/03/06 00:30:40;;;;;;;13.85;10.05;;;;;;;;;;5059265;28;20708;-50
2021/03/06 00:33:06;;;;;;;12.98;9.75;;;;;;;;;;5059148;28;20205;-49
2021/03/06 00:35:32;;;;;;;13.50;10.70;;;;;;;;;;5058433;28;20168;-49
2021/03/06 00:37:58;;;;;;;16.00;10.98;;;;;;;;;;5058113;28;20570;-49
2021/03/06 00:40:25;;;;;;;16.25;10.27;;;;;;;;;;5056376;28;20209;-49
2021/03/06 00:42:51;;;;;;;14.00;9.60;;;;;;;;;;5058325;28;20174;-50
2021/03/06 00:45:17;;;;;;;17.57;11.07;;;;;;;;;;5058302;28;20686;-49
2021/03/06 00:47:43;;;;;;;15.15;9.55;;;;;;;;;;5058151;28;20492;-50
2021/03/06 00:50:10;;;;;;;15.40;10.90;;;;;;;;;;5057007;28;20202;-49
2021/03/06 00:52:36;;;;;;;22.55;11.32;;;;;;;;;;5061950;28;20459;-50
2021/03/06 00:55:02;;;;;;;18.90;10.17;;;;;;;;;;5077475;28;20785;-50
2021/03/06 00:57:28;;;;;;;14.95;10.70;;;;;;;;;;5077538;28;20404;-50
2021/03/06 00:59:54;;;;;;;20.63;10.63;;;;;;;;;;5077627;28;20278;-51
2021/03/06 01:02:20;;;;;;;14.87;10.80;;;;;;;;;;5077583;28;20410;-50
2021/03/06 01:04:46;;;;;;;11.77;9.73;;;;;;;;;;5077107;28;20421;-50
2021/03/06 01:07:12;;;;;;;10.60;9.17;;;;;;;;;;5077078;28;20884;-50
2021/03/06 01:09:38;;;;;;;19.60;10.95;;;;;;;;;;5077131;28;20436;-50
2021/03/06 01:12:04;;;;;;;27.93;10.77;;;;;;;;;;5080500;28;20176;-50
2021/03/06 01:14:30;;;;;;;14.00;9.32;;;;;;;;;;5078922;28;20440;-49
2021/03/06 01:16:56;;;;;;;19.13;11.07;;;;;;;;;;5061670;28;20177;-49
2021/03/06 01:19:22;;;;;;;10.93;9.07;;;;;;;;;;5061873;28;20551;-49
2021/03/06 01:21:48;;;;;;;14.77;10.70;;;;;;;;;;5061322;28;20405;-49
2021/03/06 01:24:14;;;;;;;17.83;9.10;;;;;;;;;;5061753;28;20520;-48
2021/03/06 01:26:40;;;;;;;16.57;9.90;;;;;;;;;;5061423;28;20405;-47
2021/03/06 01:29:06;;;;;;;18.10;11.20;;;;;;;;;;5061445;28;20432;-50
2021/03/06 01:31:32;;;;;;;16.52;10.65;;;;;;;;;;5062108;28;20182;-48
2021/03/06 01:33:58;;;;;;;11.57;9.27;;;;;;;;;;5077577;28;20577;-48
2021/03/06 01:36:24;;;;;;;14.53;10.27;;;;;;;;;;5061735;28;20477;-47
2021/03/06 01:38:50;;;;;;;13.70;9.83;;;;;;;;;;5062242;28;20444;-51
2021/03/06 01:41:16;;;;;;;10.67;9.40;;;;;;;;;;5061811;28;20412;-50
2021/03/06 01:43:42;;;;;;;17.10;11.10;;;;;;;;;;5061742;28;20478;-50
2021/03/06 01:46:08;;;;;;;11.70;9.50;;;;;;;;;;5061536;28;20460;-50
2021/03/06 01:48:34;;;;;;;14.67;10.17;;;;;;;;;;5060452;28;20229;-50
2021/03/06 01:51:00;;;;;;;11.83;9.70;;;;;;;;;;5061096;28;20405;-50
2021/03/06 01:53:26;;;;;;;9.95;8.93;;;;;;;;;;5061777;28;20431;-50
2021/03/06 01:55:52;;;;;;;13.63;9.10;;;;;;;;;;5061703;28;20174;-50
2021/03/06 01:58:18;;;;;;;12.00;9.45;;;;;;;;;;5061724;28;20908;-50
2021/03/06 02:00:44;;;;;;;13.10;10.18;;;;;;;;;;5061508;28;20634;-50
2021/03/06 02:03:11;;;;;;;12.77;9.40;;;;;;;;;;5060394;28;20259;-50
2021/03/06 02:05:37;;;;;;;16.58;10.40;;;;;;;;;;5059979;28;20356;-54
2021/03/06 02:08:03;;;;;;;11.95;9.57;;;;;;;;;;5052828;28;20175;-48
2021/03/06 02:10:31;;;;;;;11.20;9.85;;;;;;;;;;5053099;28;20171;-51
2021/03/06 02:13:15;;;;;;;13.70;10.10;;;;;;;;;;5053046;28;20260;-51
2021/03/06 02:15:53;;;;;;;10.82;9.20;;;;;;;;;;5058365;28;20714;-49
2021/03/06 02:18:24;;;;;;;13.05;9.35;;;;;;;;;;5072636;28;20189;-50
2021/03/06 02:20:51;;;;;;;11.38;9.35;;;;;;;;;;5072784;28;20204;-50
2021/03/06 02:23:35;;;;;;;13.52;9.48;;;;;;;;;;5072495;28;20209;-50
2021/03/06 02:26:04;;;;;;;12.50;9.63;;;;;;;;;;5072653;28;20172;-52
2021/03/06 02:28:59;;;;;;;11.90;10.25;;;;;;;;;;5072446;28;20240;-53
2021/03/06 02:31:26;;;;;;;13.18;9.02;;;;;;;;;;5072689;28;20264;-53
2021/03/06 02:34:16;;;;;;;13.20;10.02;;;;;;;;;;5073037;28;20185;-50
2021/03/06 02:36:46;;;;;;;16.30;10.55;;;;;;;;;;5066877;28;20193;-51
2021/03/06 02:39:14;;;;;;;13.05;10.57;;;;;;;;;;5072393;28;20209;-50
2021/03/06 02:41:42;;;;;;;13.15;10.63;;;;;;;;;;5072397;28;20167;-50
2021/03/06 02:44:10;;;;;;;21.27;11.40;;;;;;;;;;5072522;28;20198;-51
2021/03/06 02:46:36;;;;;;;19.10;10.45;;;;;;;;;;5052345;28;20193;-53
2021/03/06 02:49:03;;;;;;;12.40;9.82;;;;;;;;;;5052201;28;20169;-50
2021/03/06 02:51:42;;;;;;;12.93;10.25;;;;;;;;;;5052223;28;20172;-50
2021/03/06 02:54:08;;;;;;;13.95;10.95;;;;;;;;;;5052419;28;20205;-52
2021/03/06 02:56:35;;;;;;;12.50;9.10;;;;;;;;;;5052081;28;20183;-51
2021/03/06 02:59:06;;;;;;;12.20;9.73;;;;;;;;;;5052034;28;20236;-50
2021/03/06 03:01:51;;;;;;;11.65;9.00;;;;;;;;;;5052033;28;20158;-53
2021/03/06 03:04:23;;;;;;;12.48;9.35;;;;;;;;;;5052026;28;20224;-50
2021/03/06 03:06:50;;;;;;;11.40;9.80;;;;;;;;;;5051929;28;20175;-50
2021/03/06 03:09:16;;;;;;;14.07;9.65;;;;;;;;;;5051980;28;20180;-50
2021/03/06 03:11:48;;;;;;;10.70;8.57;;;;;;;;;;5052042;28;20216;-50
2021/03/06 03:14:16;;;;;;;13.38;10.13;;;;;;;;;;5051932;28;20918;-50
2021/03/06 03:16:48;;;;;;;12.43;9.30;;;;;;;;;;5051469;28;20266;-50
2021/03/06 03:19:34;;;;;;;15.20;10.95;;;;;;;;;;5051570;28;20200;-50
2021/03/06 03:22:01;;;;;;;11.35;10.15;;;;;;;;;;5052024;28;20198;-50
2021/03/06 03:24:29;;;;;;;15.15;9.65;;;;;;;;;;5051625;28;20194;-53
2021/03/06 03:26:56;;;;;;;15.65;9.43;;;;;;;;;;5051514;28;20173;-51
2021/03/06 03:29:22;;;;;;;19.00;10.18;;;;;;;;;;5051489;28;20569;-50
2021/03/06 03:31:49;;;;;;;11.30;9.63;;;;;;;;;;5051714;28;20168;-50
2021/03/06 03:34:15;;;;;;;12.73;8.75;;;;;;;;;;5050589;28;20899;-53
2021/03/06 03:36:41;;;;;;;15.88;9.85;;;;;;;;;;5051364;28;20625;-50
2021/03/06 03:39:09;;;;;;;10.37;9.03;;;;;;;;;;5051030;28;20205;-50
2021/03/06 03:41:35;;;;;;;15.90;10.05;;;;;;;;;;5051358;28;20402;-53
2021/03/06 03:44:05;;;;;;;13.90;9.75;;;;;;;;;;5050848;28;20215;-51
2021/03/06 03:46:32;;;;;;;13.05;9.23;;;;;;;;;;5071219;28;20693;-53
2021/03/06 03:48:58;;;;;;;13.98;10.85;;;;;;;;;;5070951;28;20531;-51
2021/03/06 03:51:24;;;;;;;14.15;9.68;;;;;;;;;;5071077;28;20167;-50
2021/03/06 03:53:50;;;;;;;17.42;10.00;;;;;;;;;;5071083;28;20190;-50
2021/03/06 03:56:17;;;;;;;14.82;10.05;;;;;;;;;;5070951;28;20197;-50
2021/03/06 03:58:45;;;;;;;24.55;12.00;;;;;;;;;;5070877;28;20194;-50
2021/03/06 04:01:11;;;;;;;14.63;9.85;;;;;;;;;;5070961;28;20169;-51
2021/03/06 04:03:37;;;;;;;15.27;10.53;;;;;;;;;;5070922;28;20684;-53
2021/03/06 04:06:03;;;;;;;13.57;10.40;;;;;;;;;;5070640;28;20411;-53
2021/03/06 04:08:29;;;;;;;16.23;11.43;;;;;;;;;;5070836;28;20411;-51
2021/03/06 04:10:55;;;;;;;18.00;10.03;;;;;;;;;;5070832;28;20489;-50
2021/03/06 04:13:21;;;;;;;17.13;9.53;;;;;;;;;;5070972;28;20489;-50
2021/03/06 04:15:47;;;;;;;11.88;10.13;;;;;;;;;;5057320;28;20426;-51
2021/03/06 04:18:13;;;;;;;11.83;8.87;;;;;;;;;;5050495;28;20178;-51
2021/03/06 04:20:39;;;;;;;15.37;9.77;;;;;;;;;;5050715;28;20399;-51
2021/03/06 04:23:05;;;;;;;18.00;9.73;;;;;;;;;;5050521;28;20454;-51
2021/03/06 04:25:32;;;;;;;13.00;10.43;;;;;;;;;;5050851;28;20171;-50
2021/03/06 04:27:58;;;;;;;16.52;11.27;;;;;;;;;;5050182;28;20219;-50
2021/03/06 04:30:24;;;;;;;17.17;11.13;;;;;;;;;;5050759;28;20167;-50
2021/03/06 04:32:50;;;;;;;12.20;8.52;;;;;;;;;;5050475;28;20256;-53
2021/03/06 04:35:17;;;;;;;12.30;8.97;;;;;;;;;;5050588;28;20291;-53
2021/03/06 04:37:44;;;;;;;9.45;8.55;;;;;;;;;;5050224;28;20405;-51
2021/03/06 04:40:11;;;;;;;12.05;8.50;;;;;;;;;;5050494;28;20557;-51
2021/03/06 04:42:38;;;;;;;10.73;9.20;;;;;;;;;;5050420;28;20171;-50
2021/03/06 04:45:04;;;;;;;15.15;9.10;;;;;;;;;;5062071;28;20194;-50
2021/03/06 04:47:30;;;;;;;13.02;9.40;;;;;;;;;;5074241;28;20168;-53
2021/03/06 04:49:57;;;;;;;12.18;10.00;;;;;;;;;;5074642;28;20167;-52
2021/03/06 04:52:23;;;;;;;12.20;9.38;;;;;;;;;;5064265;28;20181;-52
2021/03/06 04:54:49;;;;;;;11.50;9.50;;;;;;;;;;5054380;28;20279;-52
2021/03/06 04:57:15;;;;;;;12.75;9.25;;;;;;;;;;5054339;28;20410;-52
2021/03/06 04:59:41;;;;;;;15.93;10.97;;;;;;;;;;5054295;28;20195;-52
2021/03/06 05:02:07;;;;;;;14.70;10.55;;;;;;;;;;5054267;28;20408;-51
2021/03/06 05:04:33;;;;;;;15.30;11.53;;;;;;;;;;5054209;28;20192;-50
2021/03/06 05:06:59;;;;;;;18.77;11.27;;;;;;;;;;5054098;28;20405;-50
2021/03/06 05:09:26;;;;;;;19.27;11.38;;;;;;;;;;5054184;28;20825;-50
2021/03/06 05:11:52;;;;;;;14.65;10.77;;;;;;;;;;5054302;28;20686;-50
2021/03/06 05:14:18;;;;;;;17.83;11.15;;;;;;;;;;5053439;28;20288;-50
2021/03/06 05:16:44;;;;;;;14.67;11.47;;;;;;;;;;5054148;28;20172;-52
2021/03/06 05:19:10;;;;;;;17.48;10.65;;;;;;;;;;5036209;28;20465;-50
2021/03/06 05:21:36;;;;;;;23.60;11.33;;;;;;;;;;5054065;28;20169;-50
2021/03/06 05:24:03;;;;;;;17.73;10.32;;;;;;;;;;5054278;28;20804;-50
2021/03/06 05:26:29;;;;;;;28.52;11.10;;;;;;;;;;5054046;28;20168;-50
2021/03/06 05:28:55;;;;;;;14.98;10.50;;;;;;;;;;5054060;28;20198;-49
2021/03/06 05:31:20;;;;;;;18.23;10.00;;;;;;;;;;5054067;28;20628;-51
2021/03/06 05:33:47;;;;;;;12.70;9.80;;;;;;;;;;5053848;28;20785;-50
2021/03/06 05:36:13;;;;;;;13.90;9.55;;;;;;;;;;5053799;28;20427;-50
2021/03/06 05:38:38;;;;;;;10.00;9.03;;;;;;;;;;5053466;28;20731;-50
2021/03/06 05:41:05;;;;;;;16.43;9.40;;;;;;;;;;5053564;28;20794;-50
2021/03/06 05:43:31;;;;;;;14.90;10.93;;;;;;;;;;5053589;28;20502;-50
2021/03/06 05:45:57;;;;;;;13.53;10.33;;;;;;;;;;5052634;28;20212;-50
2021/03/06 05:48:23;;;;;;;18.15;11.73;;;;;;;;;;5053292;28;20404;-50
2021/03/06 05:50:51;;;;;;;15.90;10.95;;;;;;;;;;5053510;28;20168;-50
2021/03/06 05:53:19;;;;;;;13.07;8.95;;;;;;;;;;5053207;28;20187;-50
2021/03/06 05:55:49;;;;;;;12.45;10.00;;;;;;;;;;5053473;28;20174;-50
2021/03/06 05:58:16;;;;;;;15.57;11.55;;;;;;;;;;5052193;28;20679;-50
2021/03/06 06:00:42;;;;;;;12.73;10.20;;;;;;;;;;5052913;28;20640;-53
2021/03/06 06:03:09;;;;;;;13.23;9.82;;;;;;;;;;5052332;28;20159;-53
2021/03/06 06:05:35;;;;;;;15.52;9.45;;;;;;;;;;5052637;28;20527;-50
2021/03/06 06:08:03;;;;;;;18.77;9.52;;;;;;;;;;5052082;28;20626;-51
2021/03/06 06:10:30;;;;;;;14.38;10.18;;;;;;;;;;5052704;28;20180;-52
2021/03/06 06:12:57;;;;;;;20.45;10.18;;;;;;;;;;5052099;28;20179;-51
2021/03/06 06:15:23;;;;;;;16.15;11.30;;;;;;;;;;5051817;28;20183;-51
2021/03/06 06:17:49;;;;;;;16.13;9.27;;;;;;;;;;5052621;28;20536;-53
2021/03/06 06:20:18;;;;;;;14.03;8.63;;;;;;;;;;5052530;28;20596;-51
2021/03/06 06:22:44;;;;;;;12.27;8.85;;;;;;;;;;5052965;28;20410;-50
2021/03/06 06:25:10;;;;;;;10.52;9.30;;;;;;;;;;5052636;28;20292;-50
2021/03/06 06:27:36;;;;;;;13.82;9.57;;;;;;;;;;5052427;28;20180;-50
2021/03/06 06:30:13;;;;;;;14.75;9.32;;;;;;;;;;5052692;28;20175;-50
2021/03/06 06:32:46;;;;;;;17.23;9.82;;;;;;;;;;5052699;28;20184;-52
2021/03/06 06:35:13;;;;;;;12.27;8.68;;;;;;;;;;5052599;28;20197;-50
2021/03/06 06:37:39;;;;;;;13.18;9.32;;;;;;;;;;5052408;28;20173;-51
2021/03/06 06:40:18;;;;;;;13.15;9.57;;;;;;;;;;5052299;28;20290;-51
2021/03/06 06:42:45;;;;;;;13.25;9.82;;;;;;;;;;5051294;28;20174;-52
2021/03/06 06:45:11;;;;;;;14.18;9.90;;;;;;;;;;5058726;28;20187;-50
2021/03/06 06:47:38;;;;;;;17.35;9.50;;;;;;;;;;5072036;28;20173;-51
2021/03/06 06:50:05;;;;;;;11.70;9.18;;;;;;;;;;5072372;28;20240;-50
2021/03/06 06:52:42;;;;;;;15.27;9.27;;;;;;;;;;5072324;28;20228;-52
2021/03/06 06:55:09;;;;;;;11.60;9.15;;;;;;;;;;5072061;28;20274;-50
2021/03/06 06:57:35;;;;;;;12.77;9.45;;;;;;;;;;5072009;28;20173;-50
2021/03/06 07:00:03;;;;;;;12.50;8.77;;;;;;;;;;5072215;28;20213;-50
2021/03/06 07:02:29;;;;;;;12.65;9.40;;;;;;;;;;5072009;28;20650;-53
2021/03/06 07:04:59;;;;;;;8.95;6.78;;;;;;;;;;5071976;28;20198;-52
2021/03/06 07:07:39;;;;;;;10.57;7.80;;;;;;;;;;5071698;28;20166;-50
2021/03/06 07:10:09;;;;;;;15.35;7.60;;;;;;;;;;5071307;28;20223;-48
2021/03/06 07:12:39;;;;;;;12.57;8.73;;;;;;;;;;5071947;28;20667;-48
2021/03/06 07:15:15;;;;;;;9.88;6.43;;;;;;;;;;5067053;28;20201;-48
2021/03/06 07:17:42;;;;;;;8.77;7.63;;;;;;;;;;5052004;28;20531;-48
2021/03/06 07:20:10;;;;;;;7.40;6.70;;;;;;;;;;5052032;28;20194;-52
2021/03/06 07:22:36;;;;;;;9.80;6.15;;;;;;;;;;5051883;28;20221;-49
2021/03/06 07:25:02;;;;;;;8.35;6.60;;;;;;;;;;5051891;28;20183;-49
2021/03/06 07:27:28;;;;;;;10.60;6.63;;;;;;;;;;5051333;28;20169;-48
2021/03/06 07:29:54;;;;;;;10.90;7.03;;;;;;;;;;5051682;28;20185;-48
2021/03/06 07:32:23;;;;;;;7.72;6.15;;;;;;;;;;5051615;28;20177;-48
2021/03/06 07:34:49;;;;;;;8.18;6.45;;;;;;;;;;5051421;28;20688;-49
2021/03/06 07:37:16;;;;;;;6.40;5.78;;;;;;;;;;5051322;28;20224;-48
2021/03/06 07:39:43;;;;;;;7.47;6.68;;;;;;;;;;5051376;28;20205;-49
2021/03/06 07:42:32;;;;;;;6.47;5.88;;;;;;;;;;5051468;28;20246;-50
2021/03/06 07:44:58;;;;;;;7.70;6.07;;;;;;;;;;5054686;28;20694;-49
2021/03/06 07:47:50;;;;;;;11.23;8.02;;;;;;;;;;5071081;28;20168;-49
2021/03/06 07:50:26;;;;;;;11.43;6.93;;;;;;;;;;5069174;28;20184;-49
2021/03/06 07:52:53;;;;;;;8.90;6.20;;;;;;;;;;5070611;28;20878;-51
2021/03/06 07:55:19;;;;;;;8.17;6.57;;;;;;;;;;5070357;28;20415;-51
2021/03/06 07:58:03;;;;;;;9.33;7.40;;;;;;;;;;5070371;28;20766;-50
2021/03/06 08:00:44;;;;;;;13.17;6.77;;;;;;;;;;5070853;28;20450;-51
2021/03/06 08:03:30;;;;;;;7.87;6.23;;;;;;;;;;5070968;28;20394;-49
2021/03/06 08:05:59;;;;;;;7.40;6.10;;;;;;;;;;5071548;28;20410;-50
2021/03/06 08:08:35;;;;;;;6.77;6.03;;;;;;;;;;5070740;28;20398;-49
2021/03/06 08:11:12;;;;;;;8.20;5.97;;;;;;;;;;5070878;28;20806;-50
2021/03/06 08:13:43;;;;;;;7.43;6.73;;;;;;;;;;5070799;28;20414;-49
2021/03/06 08:16:24;;;;;;;6.87;6.20;;;;;;;;;;5055863;28;20418;-49
2021/03/06 08:19:00;;;;;;;9.20;6.77;;;;;;;;;;5050548;28;20445;-52
2021/03/06 08:21:33;;;;;;;7.70;6.00;;;;;;;;;;5050346;28;20409;-52
2021/03/06 08:24:14;;;;;;;9.77;6.10;;;;;;;;;;5050706;28;20201;-49
2021/03/06 08:26:53;;;;;;;6.63;6.00;;;;;;;;;;5050445;28;20434;-52
2021/03/06 08:29:22;;;;;;;7.70;6.60;;;;;;;;;;5050570;28;20432;-52
2021/03/06 08:32:08;;;;;;;8.57;7.40;;;;;;;;;;5050594;28;20530;-49
2021/03/06 08:34:34;;;;;;;6.63;6.03;;;;;;;;;;5050507;28;20479;-51
2021/03/06 08:37:15;;;;;;;8.83;6.60;;;;;;;;;;5050281;28;20990;-51
2021/03/06 08:39:44;;;;;;;7.70;6.80;;;;;;;;;;5050513;28;20538;-50
2021/03/06 08:42:10;;;;;;;7.60;6.47;;;;;;;;;;5050343;28;20539;-53
2021/03/06 08:44:37;;;;;;;7.30;6.60;;;;;;;;;;5050372;28;20620;-50
2021/03/06 08:47:04;;;;;;;8.10;6.57;;;;;;;;;;5066483;28;20569;-50
2021/03/06 08:49:31;;;;;;;9.67;6.93;;;;;;;;;;5070326;28;20410;-52
2021/03/06 08:51:57;;;;;;;7.40;6.70;;;;;;;;;;5070458;28;20430;-50
2021/03/06 08:54:24;;;;;;;8.17;6.67;;;;;;;;;;5070360;28;20802;-50
2021/03/06 08:56:50;;;;;;;8.40;7.23;;;;;;;;;;5070330;28;20500;-50
2021/03/06 08:59:16;;;;;;;6.70;6.03;;;;;;;;;;5070132;28;20456;-52
2021/03/06 09:01:42;;;;;;;8.17;6.67;;;;;;;;;;5070424;28;20392;-49
2021/03/06 09:04:08;;;;;;;7.87;6.97;;;;;;;;;;5070261;28;20975;-50
2021/03/06 09:06:41;;;;;;;9.43;6.87;;;;;;;;;;5070394;28;20481;-52
2021/03/06 09:09:09;;;;;;;10.87;6.37;;;;;;;;;;5070004;28;20415;-50
2021/03/06 09:11:53;;;;;;;9.40;6.17;;;;;;;;;;5070374;28;20430;-50
2021/03/06 09:14:19;;;;;;;11.50;6.20;;;;;;;;;;5070113;28;20507;-50
2021/03/06 09:16:48;;;;;;;5.50;5.00;;;;;;;;;;5058142;28;20508;-49
2021/03/06 09:19:24;;;;;;;11.03;5.00;;;;;;;;;;5050357;28;21016;-52
2021/03/06 09:22:20;;;;;;;6.07;5.47;;;;;;;;;;5050266;28;20413;-50
2021/03/06 09:24:49;;;;;;;4.57;4.00;;;;;;;;;;5045477;28;20813;-50
2021/03/06 09:27:15;;;;;;;8.57;5.30;;;;;;;;;;5049935;28;20438;-50
2021/03/06 09:29:42;;;;;;;8.70;5.20;;;;;;;;;;5050037;28;20436;-50
2021/03/06 09:32:09;;;;;;;10.77;5.90;;;;;;;;;;5051265;28;20448;-50
2021/03/06 09:34:35;;;;;;;6.50;4.27;;;;;;;;;;5053905;28;20425;-53
2021/03/06 09:37:17;;;;;;;6.93;4.97;;;;;;;;;;5053457;28;20497;-52
2021/03/06 09:39:43;;;;;;;5.43;4.77;;;;;;;;;;5053732;28;20548;-51
2021/03/06 09:42:09;;;;;;;10.37;5.07;;;;;;;;;;5053554;28;20400;-52
2021/03/06 09:44:36;;;;;;;8.87;5.10;;;;;;;;;;5053573;28;20399;-53
2021/03/06 09:47:02;;;;;;;5.93;4.50;;;;;;;;;;5052792;28;20769;-50
2021/03/06 09:49:35;;;;;;;12.30;5.47;;;;;;;;;;5053598;28;20476;-50
2021/03/06 09:52:01;;;;;;;12.83;5.33;;;;;;;;;;5053377;28;20387;-50
2021/03/06 09:54:34;;;;;;;6.60;4.83;;;;;;;;;;5053336;28;20425;-51
2021/03/06 09:57:02;;;;;;;7.47;4.63;;;;;;;;;;5053084;28;20418;-50
2021/03/06 09:59:29;;;;;;;5.77;5.20;;;;;;;;;;5053314;28;20482;-52
2021/03/06 10:02:03;;;;;;;8.83;5.40;;;;;;;;;;5053285;28;20405;-50
2021/03/06 10:04:29;;;;;;;10.30;5.60;;;;;;;;;;5053151;28;20769;-50
2021/03/06 10:06:55;;;;;;;8.23;5.30;;;;;;;;;;5053079;28;20390;-50
2021/03/06 10:09:23;;;;;;;9.47;6.57;;;;;;;;;;5053057;28;20535;-49
2021/03/06 10:11:50;;;;;;;8.77;6.20;;;;;;;;;;5053196;28;20387;-51
2021/03/06 10:14:21;;;;;;;13.30;6.87;;;;;;;;;;5052941;28;20432;-52
2021/03/06 10:17:01;;;;;;;9.03;6.40;;;;;;;;;;5052454;28;20407;-50
2021/03/06 10:19:29;;;;;;;10.20;6.80;;;;;;;;;;5052521;28;20427;-50
2021/03/06 10:21:57;;;;;;;6.60;5.80;;;;;;;;;;5060941;28;20412;-50
2021/03/06 10:24:23;;;;;;;9.87;5.80;;;;;;;;;;5072402;28;20405;-50
2021/03/06 10:26:59;;;;;;;8.10;5.47;;;;;;;;;;5072770;28;20444;-50
2021/03/06 10:29:26;;;;;;;9.47;4.30;;;;;;;;;;5072422;28;20419;-50
2021/03/06 10:32:10;;;;;;;7.40;3.93;;;;;;;;;;5072758;28;20383;-50
2021/03/06 10:34:37;;;;;;;13.93;4.67;;;;;;;;;;5072514;28;20448;-52
2021/03/06 10:37:13;;;;;;;5.93;3.90;;;;;;;;;;5072352;28;20461;-50
2021/03/06 10:39:54;;;;;;;7.37;3.80;;;;;;;;;;5072437;28;20430;-50
2021/03/06 10:42:20;;;;;;;8.97;3.90;;;;;;;;;;5072390;28;20424;-50
2021/03/06 10:44:47;;;;;;;5.60;3.90;;;;;;;;;;5072439;28;20466;-51
2021/03/06 10:47:13;;;;;;;9.70;4.43;;;;;;;;;;5058125;28;20437;-52
2021/03/06 10:49:46;;;;;;;7.97;4.00;;;;;;;;;;5052278;28;20802;-52
2021/03/06 10:52:24;;;;;;;5.50;3.47;;;;;;;;;;5052092;28;20433;-53
2021/03/06 10:54:51;;;;;;;8.53;4.97;;;;;;;;;;5052230;28;20425;-52
2021/03/06 10:57:17;;;;;;;7.73;3.20;;;;;;;;;;5051801;28;20409;-51
2021/03/06 10:59:43;;;;;;;4.10;3.60;;;;;;;;;;5052108;28;20431;-50
2021/03/06 11:02:22;;;;;;;8.93;3.53;;;;;;;;;;5052038;28;20368;-50
2021/03/06 11:04:48;;;;;;;5.97;3.60;;;;;;;;;;5051898;28;20566;-52
2021/03/06 11:07:14;;;;;;;8.67;3.63;;;;;;;;;;5051731;28;20733;-50
2021/03/06 11:09:40;;;;;;;5.40;3.73;;;;;;;;;;5052025;28;20463;-50
2021/03/06 11:12:19;;;;;;;7.60;3.90;;;;;;;;;;5052002;28;20962;-50
2021/03/06 11:14:45;;;;;;;4.37;3.67;;;;;;;;;;5051676;28;20907;-52
2021/03/06 11:17:15;;;;;;;9.83;4.03;;;;;;;;;;5051233;28;20433;-53
2021/03/06 11:19:42;;;;;;;5.70;3.60;;;;;;;;;;5051982;28;20514;-50
2021/03/06 11:22:09;;;;;;;4.47;3.17;;;;;;;;;;5052184;28;20375;-50
2021/03/06 11:24:35;;;;;;;3.63;3.33;;;;;;;;;;5051832;28;20428;-49
2021/03/06 11:27:01;;;;;;;5.20;3.50;;;;;;;;;;5051715;28;20402;-49
2021/03/06 11:29:28;;;;;;;6.00;3.80;;;;;;;;;;5051575;28;20439;-49
2021/03/06 11:31:55;;;;;;;5.97;3.67;;;;;;;;;;5051548;28;20765;-50
2021/03/06 11:34:21;;;;;;;5.97;3.53;;;;;;;;;;5051409;28;20429;-49
2021/03/06 11:36:47;;;;;;;7.20;3.93;;;;;;;;;;5051491;28;20488;-50
2021/03/06 11:39:13;;;;;;;5.20;4.70;;;;;;;;;;5051219;28;20535;-50
2021/03/06 11:41:40;;;;;;;4.90;3.50;;;;;;;;;;5051308;28;20397;-49
2021/03/06 11:44:07;;;;;;;7.50;3.47;;;;;;;;;;5051288;28;20767;-51
2021/03/06 11:46:33;;;;;;;4.50;3.27;;;;;;;;;;5050427;28;20691;-50
2021/03/06 11:48:59;;;;;;;5.63;2.87;;;;;;;;;;5051561;28;20399;-50
2021/03/06 11:51:25;;;;;;;3.90;3.50;;;;;;;;;;5051099;28;20401;-51
2021/03/06 11:53:51;;;;;;;4.63;3.80;;;;;;;;;;5051010;28;20457;-54
2021/03/06 11:56:17;;;;;;;5.93;3.13;;;;;;;;;;5050381;28;20372;-52
2021/03/06 11:58:43;;;;;;;6.07;3.40;;;;;;;;;;5050802;28;20750;-52
2021/03/06 12:01:09;;;;;;;10.27;3.30;;;;;;;;;;5051031;28;20417;-52
2021/03/06 12:03:35;;;;;;;5.30;3.37;;;;;;;;;;5050840;28;20493;-50
2021/03/06 12:06:01;;;;;;;6.83;3.30;;;;;;;;;;5051032;28;20905;-51
2021/03/06 12:08:27;;;;;;;5.70;2.80;;;;;;;;;;5050598;28;20461;-52
2021/03/06 12:10:53;;;;;;;3.27;2.93;;;;;;;;;;5050946;28;20405;-51
2021/03/06 12:13:19;;;;;;;6.83;3.50;;;;;;;;;;5050615;28;20436;-50
2021/03/06 12:15:45;;;;;;;6.90;4.13;;;;;;;;;;5050852;28;20368;-50
2021/03/06 12:18:11;;;;;;;4.00;3.70;;;;;;;;;;5049953;28;20417;-50
2021/03/06 12:20:37;;;;;;;8.00;3.80;;;;;;;;;;5050614;28;20506;-50
2021/03/06 12:23:03;;;;;;;7.83;3.30;;;;;;;;;;5050750;28;20384;-50
2021/03/06 12:25:29;;;;;;;10.67;3.33;;;;;;;;;;5050473;28;20401;-51
2021/03/06 12:27:55;;;;;;;3.10;2.90;;;;;;;;;;5050343;28;20426;-52
2021/03/06 12:30:21;;;;;;;3.47;2.80;;;;;;;;;;5050520;28;20499;-51
2021/03/06 12:32:48;;;;;;;7.80;3.13;;;;;;;;;;5050677;28;20904;-53
2021/03/06 12:35:15;;;;;;;3.50;2.90;;;;;;;;;;5050401;28;20417;-52
2021/03/06 12:37:41;;;;;;;6.00;2.77;;;;;;;;;;5050324;28;20434;-52
2021/03/06 12:40:08;;;;;;;6.60;3.63;;;;;;;;;;5050352;28;20875;-52
2021/03/06 12:42:34;;;;;;;4.60;3.20;;;;;;;;;;5050497;28;20951;-50
2021/03/06 12:45:00;;;;;;;6.63;3.70;;;;;;;;;;5050446;28;20399;-53
2021/03/06 12:47:26;;;;;;;6.80;3.87;;;;;;;;;;5059277;28;20399;-50
2021/03/06 12:49:53;;;;;;;6.30;4.43;;;;;;;;;;5070601;28;20401;-50
2021/03/06 12:52:19;;;;;;;3.57;3.20;;;;;;;;;;5068827;28;20506;-50
2021/03/06 12:54:45;;;;;;;7.10;4.50;;;;;;;;;;5070377;28;20512;-50
2021/03/06 12:57:11;;;;;;;5.20;4.20;;;;;;;;;;5070114;28;20439;-50
2021/03/06 12:59:37;;;;;;;8.40;4.70;;;;;;;;;;5070394;28;20448;-50
2021/03/06 13:02:03;;;;;;;5.53;4.20;;;;;;;;;;5070453;28;20880;-50
2021/03/06 13:04:29;;;;;;;6.00;4.47;;;;;;;;;;5070403;28;20421;-50
2021/03/06 13:06:55;;;;;;;4.93;4.07;;;;;;;;;;5073075;28;20385;-50
2021/03/06 13:09:21;;;;;;;3.90;3.53;;;;;;;;;;5074420;28;20400;-50
2021/03/06 13:11:47;;;;;;;8.03;6.03;;;;;;;;;;5072464;28;20418;-50
2021/03/06 13:14:13;;;;;;;5.03;4.30;;;;;;;;;;5074249;28;20913;-50
2021/03/06 13:16:39;;;;;;;5.13;3.40;;;;;;;;;;5072806;28;20378;-50
2021/03/06 13:19:05;;;;;;;7.20;3.27;;;;;;;;;;5054549;28;20532;-50
2021/03/06 13:21:31;;;;;;;3.50;2.60;;;;;;;;;;5061000;28;20421;-50
2021/03/06 13:23:57;;;;;;;4.90;2.53;;;;;;;;;;5053744;28;20407;-50
2021/03/06 13:26:23;;;;;;;5.47;2.80;;;;;;;;;;5053799;28;20819;-50
2021/03/06 13:28:50;;;;;;;3.50;2.30;;;;;;;;;;5064747;28;20424;-49
2021/03/06 13:31:16;;;;;;;5.80;2.53;;;;;;;;;;5053889;28;20422;-49
2021/03/06 13:33:42;;;;;;;4.87;3.17;;;;;;;;;;5053465;28;20425;-48
2021/03/06 13:36:08;;;;;;;5.30;2.70;;;;;;;;;;5053692;28;20495;-49
2021/03/06 13:38:34;;;;;;;6.67;3.00;;;;;;;;;;5053734;28;20920;-49
2021/03/06 13:41:00;;;;;;;6.67;2.47;;;;;;;;;;5053402;28;20380;-50
2021/03/06 13:43:26;;;;;;;7.27;2.70;;;;;;;;;;5072881;28;20890;-49
2021/03/06 13:45:52;;;;;;;3.70;2.80;;;;;;;;;;5078660;28;20375;-52
2021/03/06 13:48:18;;;;;;;2.60;2.40;;;;;;;;;;5069119;28;20461;-52
2021/03/06 13:50:44;;;;;;;4.03;2.10;;;;;;;;;;5058055;28;20439;-52
2021/03/06 13:53:10;;;;;;;2.70;2.50;;;;;;;;;;5057118;28;20720;-52
2021/03/06 13:55:36;;;;;;;3.70;2.73;;;;;;;;;;5058081;28;20755;-51
2021/03/06 13:58:02;;;;;;;4.20;2.40;;;;;;;;;;5058854;28;20459;-51
2021/03/06 14:00:28;;;;;;;4.03;2.77;;;;;;;;;;5057568;28;20457;-51
2021/03/06 14:02:54;;;;;;;6.83;3.23;;;;;;;;;;5056157;28;20395;-51
2021/03/06 14:05:20;;;;;;;2.70;1.97;;;;;;;;;;5057494;28;20775;-53
2021/03/06 14:07:46;;;;;;;4.33;2.23;;;;;;;;;;5058159;28;20401;-52
2021/03/06 14:10:12;;;;;;;2.20;2.00;;;;;;;;;;5057802;28;20387;-53
2021/03/06 14:12:39;;;;;;;1.90;1.80;;;;;;;;;;5056547;28;20484;-51
2021/03/06 14:15:05;;;;;;;2.50;1.97;;;;;;;;;;5057703;28;20793;-51
2021/03/06 14:17:31;;;;;;;3.83;2.03;;;;;;;;;;5057753;28;20376;-53
2021/03/06 14:19:59;;;;;;;4.20;1.80;;;;;;;;;;5059524;28;20468;-53
2021/03/06 14:22:24;;;;;;;3.40;2.13;;;;;;;;;;5077781;28;20725;-53
2021/03/06 14:24:50;;;;;;;2.00;1.87;;;;;;;;;;5075761;28;20416;-50
2021/03/06 14:27:16;;;;;;;1.90;1.80;;;;;;;;;;5072708;28;20885;-50
2021/03/06 14:29:42;;;;;;;3.00;2.13;;;;;;;;;;5072619;28;20424;-49
2021/03/06 14:32:08;;;;;;;2.80;1.83;;;;;;;;;;5072749;28;20373;-50
2021/03/06 14:34:34;;;;;;;3.20;1.80;;;;;;;;;;5072549;28;20794;-50
2021/03/06 14:37:00;;;;;;;4.30;1.50;;;;;;;;;;5072316;28;20376;-50
2021/03/06 14:39:26;;;;;;;2.90;1.80;;;;;;;;;;5072390;28;20423;-51